Terminal Aerodrome Forecast
Issued by NWS

Current Version | Previous Version | Graphics & Text | Print | Product List | Glossary On
Versions: 1 2 3 4 5 6 7 8 9 10 11 12 13 14 15 16 17 18 19 20 21 22 23 24 25
000
FTUS41 KPBZ 020500
TAFMGW
TAF
KMGW 020520Z 0206/0306 VRB05KT 6SM -RA OVC010
      TEMPO 0206/0210 2SM -RASN OVC007
     FM021000 VRB03KT P6SM OVC010
     FM021500 28008KT P6SM OVC025
     FM021800 28008KT P6SM BKN150=

USA.gov is the U.S. government's official web portal to all federal, state and local government web resources and services.